createdAt,value
2023-05-09T00:00:49.052Z,0.68
2023-05-09T00:03:15.948Z,0.88
2023-05-09T00:05:42.783Z,1.00
2023-05-09T00:08:09.596Z,0.90
2023-05-09T00:10:36.632Z,0.60
2023-05-09T00:13:03.456Z,0.70
2023-05-09T00:15:30.606Z,0.90
2023-05-09T00:17:57.668Z,0.80
2023-05-09T00:20:24.606Z,0.85
2023-05-09T00:22:51.746Z,1.00
2023-05-09T00:25:18.531Z,0.80
2023-05-09T00:27:45.326Z,0.70
2023-05-09T00:30:12.297Z,0.80
2023-05-09T00:32:40.363Z,0.65
2023-05-09T00:35:08.236Z,0.70
2023-05-09T00:37:35.090Z,0.90
2023-05-09T00:40:02.140Z,0.80
2023-05-09T00:42:28.931Z,1.15
2023-05-09T00:44:55.707Z,0.70
2023-05-09T00:47:23.176Z,0.90
2023-05-09T00:49:50.383Z,0.80
2023-05-09T00:52:20.923Z,0.80
2023-05-09T00:54:47.716Z,0.90
2023-05-09T00:57:14.578Z,1.08
2023-05-09T00:59:41.407Z,0.82
2023-05-09T01:02:08.290Z,1.17
2023-05-09T01:04:35.237Z,0.90
2023-05-09T01:07:12.029Z,1.00
2023-05-09T01:09:41.633Z,0.90
2023-05-09T01:12:12.225Z,1.20
2023-05-09T01:14:51.674Z,1.00
2023-05-09T01:17:24.281Z,1.10
2023-05-09T01:19:54.000Z,1.17
2023-05-09T01:22:22.295Z,1.20
2023-05-09T01:25:21.913Z,1.20
2023-05-09T01:27:53.430Z,1.20
2023-05-09T01:30:20.625Z,1.23
2023-05-09T01:32:50.205Z,1.10
2023-05-09T01:35:17.340Z,1.08
2023-05-09T01:37:49.210Z,1.23
2023-05-09T01:40:17.542Z,1.17
2023-05-09T01:43:07.111Z,1.00
2023-05-09T01:45:34.878Z,1.10
2023-05-09T01:48:01.929Z,1.08
2023-05-09T01:50:32.751Z,0.95
2023-05-09T01:53:00.519Z,1.27
2023-05-09T01:55:28.524Z,1.00
2023-05-09T01:57:55.922Z,0.90
2023-05-09T02:00:23.954Z,1.00
2023-05-09T02:02:52.000Z,1.00
2023-05-09T02:05:18.989Z,1.00
2023-05-09T02:07:47.465Z,0.90
2023-05-09T02:10:15.693Z,0.90
2023-05-09T02:12:42.551Z,1.15
2023-05-09T02:15:09.654Z,1.00
2023-05-09T02:17:36.487Z,0.90
2023-05-09T02:20:05.316Z,0.95
2023-05-09T02:22:32.256Z,0.95
2023-05-09T02:25:00.585Z,1.05
2023-05-09T02:27:27.764Z,1.20
2023-05-09T02:29:57.559Z,0.95
2023-05-09T02:32:26.609Z,0.90
2023-05-09T02:34:54.008Z,1.20
2023-05-09T02:37:21.073Z,1.08
2023-05-09T02:39:47.993Z,1.00
2023-05-09T02:42:20.820Z,1.02
2023-05-09T02:44:47.701Z,1.13
2023-05-09T02:47:14.537Z,1.10
2023-05-09T02:49:41.337Z,1.40
2023-05-09T02:52:08.208Z,1.10
2023-05-09T02:54:35.204Z,1.20
2023-05-09T02:57:02.027Z,1.20
2023-05-09T02:59:28.828Z,1.10
2023-05-09T03:01:55.799Z,1.00
2023-05-09T03:04:23.143Z,1.00
2023-05-09T03:06:49.933Z,1.38
2023-05-09T03:09:16.915Z,1.00
2023-05-09T03:11:43.753Z,1.00
2023-05-09T03:14:11.302Z,1.27
2023-05-09T03:16:38.170Z,1.40
2023-05-09T03:19:05.008Z,1.17
2023-05-09T03:21:32.249Z,1.13
2023-05-09T03:23:59.135Z,0.88
2023-05-09T03:26:26.594Z,1.25
2023-05-09T03:28:53.469Z,0.90
2023-05-09T03:31:20.424Z,0.93
2023-05-09T03:33:47.272Z,0.85
2023-05-09T03:36:14.325Z,0.90
2023-05-09T03:38:41.096Z,1.25
2023-05-09T03:41:07.865Z,1.00
2023-05-09T03:43:34.659Z,0.90
2023-05-09T03:46:01.430Z,1.13
2023-05-09T03:48:28.266Z,0.90
2023-05-09T03:50:55.088Z,1.23
2023-05-09T03:53:21.872Z,1.10
2023-05-09T03:55:48.731Z,1.30
2023-05-09T03:58:15.641Z,1.23
2023-05-09T04:00:42.492Z,1.10
2023-05-09T04:03:09.531Z,1.02
2023-05-09T04:05:36.537Z,1.30
2023-05-09T04:08:04.002Z,1.65
2023-05-09T04:10:31.666Z,1.25
2023-05-09T04:12:58.615Z,1.30
2023-05-09T04:15:25.764Z,1.30
2023-05-09T04:17:52.697Z,1.20
2023-05-09T04:20:19.572Z,1.52
2023-05-09T04:22:47.000Z,1.50
2023-05-09T04:25:14.957Z,1.55
2023-05-09T04:27:41.908Z,1.40
2023-05-09T04:30:09.449Z,1.23
2023-05-09T04:32:36.953Z,1.67
2023-05-09T04:35:04.419Z,1.20
2023-05-09T04:37:32.768Z,1.20
2023-05-09T04:39:59.682Z,1.52
2023-05-09T04:42:26.484Z,1.67
2023-05-09T04:44:53.377Z,1.50
2023-05-09T04:47:20.305Z,1.60
2023-05-09T04:49:47.094Z,1.77
2023-05-09T04:52:13.877Z,1.50
2023-05-09T04:54:41.175Z,1.70
2023-05-09T04:57:17.261Z,1.48
2023-05-09T04:59:45.008Z,1.75
2023-05-09T05:02:12.505Z,1.80
2023-05-09T05:04:39.376Z,1.77
2023-05-09T05:07:06.317Z,1.73
2023-05-09T05:09:33.163Z,1.45
2023-05-09T05:12:02.985Z,1.60
2023-05-09T05:14:31.357Z,1.80
2023-05-09T05:16:58.162Z,1.65
2023-05-09T05:19:24.962Z,1.70
2023-05-09T05:21:51.802Z,1.73
2023-05-09T05:24:18.630Z,1.77
2023-05-09T05:26:45.637Z,1.88
2023-05-09T05:29:12.403Z,1.75
2023-05-09T05:31:39.336Z,1.98
2023-05-09T05:34:06.450Z,1.90
2023-05-09T05:36:33.420Z,1.77
2023-05-09T05:39:00.324Z,1.90
2023-05-09T05:41:27.178Z,2.15
2023-05-09T05:43:54.594Z,2.00
2023-05-09T05:46:21.585Z,2.10
2023-05-09T05:48:48.479Z,2.03
2023-05-09T05:51:15.291Z,2.30
2023-05-09T05:53:42.471Z,2.13
2023-05-09T05:56:09.251Z,2.10
2023-05-09T05:58:36.014Z,2.00
2023-05-09T06:01:02.926Z,1.77
2023-05-09T06:03:29.770Z,1.85
2023-05-09T06:05:56.731Z,2.10
2023-05-09T06:08:23.697Z,2.13
2023-05-09T06:10:50.542Z,1.95
2023-05-09T06:13:17.360Z,1.90
2023-05-09T06:15:44.336Z,2.10
2023-05-09T06:18:11.328Z,1.92
2023-05-09T06:20:38.174Z,2.13
2023-05-09T06:23:05.044Z,2.10
2023-05-09T06:25:31.839Z,2.25
2023-05-09T06:27:58.676Z,2.25
2023-05-09T06:30:26.987Z,2.28
2023-05-09T06:32:55.042Z,2.40
2023-05-09T06:35:22.229Z,2.40
2023-05-09T06:37:49.525Z,2.60
2023-05-09T06:40:16.817Z,2.03
2023-05-09T06:42:43.801Z,2.47
2023-05-09T06:45:11.241Z,2.28
2023-05-09T06:47:38.101Z,2.10
2023-05-09T06:50:05.266Z,2.05
2023-05-09T06:52:32.093Z,2.20
2023-05-09T06:54:58.899Z,3.60
2023-05-09T06:57:25.765Z,2.58
2023-05-09T06:59:52.670Z,2.40
2023-05-09T07:02:19.596Z,2.80
2023-05-09T07:04:46.415Z,2.47
2023-05-09T07:07:13.310Z,2.20
2023-05-09T07:09:40.244Z,2.67
2023-05-09T07:12:07.205Z,1.70
2023-05-09T07:14:33.982Z,2.03
2023-05-09T07:17:14.230Z,1.52
2023-05-09T07:19:47.620Z,1.60
2023-05-09T07:22:14.493Z,1.70
2023-05-09T07:24:41.343Z,1.70
2023-05-09T07:27:08.169Z,1.88
2023-05-09T07:29:34.952Z,2.03
2023-05-09T07:32:01.875Z,1.88
2023-05-09T07:34:28.805Z,1.52
2023-05-09T07:36:55.705Z,1.88
2023-05-09T07:39:22.534Z,2.03
2023-05-09T07:41:49.429Z,1.83
2023-05-09T07:44:16.328Z,1.55
2023-05-09T07:46:43.111Z,2.20
2023-05-09T07:49:10.324Z,2.03
2023-05-09T07:51:37.117Z,2.08
2023-05-09T07:54:03.912Z,2.05
2023-05-09T07:56:30.835Z,1.55
2023-05-09T07:58:57.683Z,2.05
2023-05-09T08:01:24.435Z,2.08
2023-05-09T08:03:51.364Z,2.08
2023-05-09T08:06:18.198Z,1.85
2023-05-09T08:08:45.010Z,1.58
2023-05-09T08:11:11.921Z,1.83
2023-05-09T08:13:41.605Z,1.70
2023-05-09T08:16:08.468Z,1.77
2023-05-09T08:18:35.328Z,1.90
2023-05-09T08:21:02.198Z,1.80
2023-05-09T08:23:30.370Z,1.90
2023-05-09T08:25:57.325Z,1.95
2023-05-09T08:28:24.368Z,1.83
2023-05-09T08:30:51.776Z,1.77
2023-05-09T08:33:18.578Z,1.90
2023-05-09T08:35:45.694Z,1.77
2023-05-09T08:38:12.504Z,2.20
2023-05-09T08:40:41.041Z,2.10
2023-05-09T08:43:08.731Z,1.83
2023-05-09T08:45:39.711Z,1.58
2023-05-09T08:48:06.928Z,1.70
2023-05-09T08:50:35.621Z,1.77
2023-05-09T08:53:02.646Z,1.90
2023-05-09T08:55:29.548Z,2.30
2023-05-09T08:57:57.947Z,1.70
2023-05-09T09:00:25.666Z,2.10
2023-05-09T09:02:53.814Z,2.30
2023-05-09T09:05:40.008Z,2.00
2023-05-09T09:08:08.602Z,1.77
2023-05-09T09:10:35.675Z,2.10
2023-05-09T09:13:04.970Z,1.92
2023-05-09T09:15:36.077Z,2.00
2023-05-09T09:18:10.191Z,2.00
2023-05-09T09:20:40.493Z,1.80
2023-05-09T09:23:10.507Z,2.10
2023-05-09T09:25:37.561Z,2.25
2023-05-09T09:28:05.404Z,1.75
2023-05-09T09:30:32.622Z,2.00
2023-05-09T09:32:59.591Z,1.63
2023-05-09T09:35:26.661Z,1.92
2023-05-09T09:37:58.503Z,2.10
2023-05-09T09:40:26.939Z,1.90
2023-05-09T09:42:53.834Z,1.77
2023-05-09T09:45:20.680Z,1.70
2023-05-09T09:47:48.283Z,1.98
2023-05-09T09:50:16.501Z,2.38
2023-05-09T09:52:50.780Z,2.13
2023-05-09T09:55:21.002Z,1.98
2023-05-09T09:57:48.474Z,2.13
2023-05-09T10:00:16.372Z,2.03
2023-05-09T10:02:47.469Z,1.60
2023-05-09T10:05:18.837Z,2.20
2023-05-09T10:07:45.694Z,1.50
2023-05-09T10:10:12.579Z,1.60
2023-05-09T10:12:40.828Z,1.65
2023-05-09T10:15:09.161Z,1.63
2023-05-09T10:17:36.237Z,1.67
2023-05-09T10:20:05.079Z,1.77
2023-05-09T10:22:33.641Z,1.73
2023-05-09T10:25:13.276Z,1.90
2023-05-09T10:27:44.658Z,1.83
2023-05-09T10:30:11.944Z,1.90
2023-05-09T10:32:41.478Z,1.98
2023-05-09T10:35:10.622Z,1.80
2023-05-09T10:37:37.690Z,1.65
2023-05-09T10:40:05.199Z,1.50
2023-05-09T10:42:33.269Z,1.50
2023-05-09T10:45:01.088Z,1.50
2023-05-09T10:47:28.212Z,1.75
2023-05-09T10:49:55.381Z,2.20
2023-05-09T10:52:22.831Z,2.00
2023-05-09T10:55:01.059Z,1.88
2023-05-09T10:57:29.024Z,2.05
2023-05-09T10:59:56.820Z,1.80
2023-05-09T11:02:31.157Z,2.67
2023-05-09T11:05:13.588Z,1.70
2023-05-09T11:07:40.504Z,1.50
2023-05-09T11:10:10.299Z,1.75
2023-05-09T11:12:54.383Z,2.03
2023-05-09T11:15:22.786Z,2.22
2023-05-09T11:18:05.838Z,1.40
2023-05-09T11:20:36.571Z,1.80
2023-05-09T11:23:06.945Z,1.85
2023-05-09T11:25:33.831Z,1.40
2023-05-09T11:28:01.537Z,1.70
2023-05-09T11:30:48.767Z,1.52
2023-05-09T11:33:27.194Z,1.63
2023-05-09T11:36:14.030Z,1.42
2023-05-09T11:38:44.182Z,1.60
2023-05-09T11:41:11.340Z,1.98
2023-05-09T11:43:38.408Z,1.60
2023-05-09T11:46:05.573Z,1.60
2023-05-09T11:48:37.599Z,2.05
2023-05-09T11:51:04.756Z,1.80
2023-05-09T11:53:32.415Z,1.55
2023-05-09T11:56:02.453Z,1.40
2023-05-09T11:58:29.249Z,1.90
2023-05-09T12:00:56.041Z,1.80
2023-05-09T12:03:24.383Z,2.25
2023-05-09T12:05:51.337Z,1.67
2023-05-09T12:08:18.396Z,2.40
2023-05-09T12:10:45.506Z,1.80
2023-05-09T12:13:13.222Z,1.70
2023-05-09T12:15:40.091Z,1.90
2023-05-09T12:18:08.167Z,1.67
2023-05-09T12:20:45.202Z,1.90
2023-05-09T12:23:12.847Z,1.83
2023-05-09T12:25:40.207Z,1.52
2023-05-09T12:28:07.073Z,1.70
2023-05-09T12:30:34.310Z,1.70
2023-05-09T12:33:01.210Z,1.83
2023-05-09T12:35:28.094Z,2.13
2023-05-09T12:38:04.042Z,1.83
2023-05-09T12:40:30.962Z,2.00
2023-05-09T12:43:00.992Z,1.80
2023-05-09T12:45:27.913Z,1.90
2023-05-09T12:47:57.296Z,1.70
2023-05-09T12:50:31.161Z,1.95
2023-05-09T12:53:03.205Z,1.90
2023-05-09T12:55:31.290Z,2.10
2023-05-09T12:58:04.032Z,1.98
2023-05-09T13:00:42.270Z,1.92
2023-05-09T13:03:31.243Z,1.85
2023-05-09T13:06:00.432Z,2.05
2023-05-09T13:08:27.905Z,2.20
2023-05-09T13:11:03.984Z,2.13
2023-05-09T13:13:35.118Z,1.90
2023-05-09T13:16:03.753Z,2.10
2023-05-09T13:18:30.600Z,1.90
2023-05-09T13:20:57.400Z,2.30
2023-05-09T13:23:24.420Z,2.13
2023-05-09T13:25:51.515Z,2.13
2023-05-09T13:28:18.305Z,2.90
2023-05-09T13:30:45.876Z,2.90
2023-05-09T13:33:24.573Z,2.38
2023-05-09T13:35:52.454Z,2.75
2023-05-09T13:38:19.344Z,2.60
2023-05-09T13:40:46.454Z,2.47
2023-05-09T13:43:13.262Z,2.95
2023-05-09T13:45:40.093Z,2.33
2023-05-09T13:48:07.021Z,2.60
2023-05-09T13:50:34.118Z,2.75
2023-05-09T13:53:00.979Z,2.50
2023-05-09T13:55:27.978Z,2.30
2023-05-09T13:57:55.041Z,2.33
2023-05-09T14:00:22.256Z,3.10
2023-05-09T14:02:49.202Z,2.60
2023-05-09T14:05:16.918Z,2.35
2023-05-09T14:07:44.169Z,2.67
2023-05-09T14:10:12.355Z,2.60
2023-05-09T14:12:39.689Z,3.20
2023-05-09T14:15:07.780Z,2.72
2023-05-09T14:17:34.723Z,2.00
2023-05-09T14:20:01.545Z,1.92
2023-05-09T14:22:28.423Z,2.00
2023-05-09T14:24:57.402Z,2.20
2023-05-09T14:27:25.114Z,2.20
2023-05-09T14:29:52.314Z,1.80
2023-05-09T14:32:19.191Z,2.17
2023-05-09T14:34:46.079Z,1.95
2023-05-09T14:37:16.000Z,1.40
2023-05-09T14:39:43.379Z,1.73
2023-05-09T14:42:11.642Z,1.40
2023-05-09T14:44:38.821Z,1.00
2023-05-09T14:47:06.067Z,1.27
2023-05-09T14:49:33.076Z,1.38
2023-05-09T14:52:00.104Z,1.10
2023-05-09T14:54:27.126Z,0.82
2023-05-09T14:56:54.011Z,1.40
2023-05-09T14:59:21.128Z,1.30
2023-05-09T15:01:47.985Z,1.83
2023-05-09T15:04:14.848Z,1.52
2023-05-09T15:06:42.174Z,1.52
2023-05-09T15:09:10.175Z,1.20
2023-05-09T15:11:47.854Z,1.20
2023-05-09T15:14:16.696Z,1.63
2023-05-09T15:16:44.072Z,1.13
2023-05-09T15:19:11.099Z,1.17
2023-05-09T15:21:37.956Z,1.10
2023-05-09T15:24:04.906Z,1.27
2023-05-09T15:26:32.364Z,1.50
2023-05-09T15:28:59.321Z,1.80
2023-05-09T15:31:26.466Z,2.00
2023-05-09T15:33:53.425Z,2.08
2023-05-09T15:36:20.237Z,1.75
2023-05-09T15:38:49.648Z,1.75
2023-05-09T15:41:17.072Z,1.75
2023-05-09T15:43:44.024Z,1.75
2023-05-09T15:46:11.165Z,1.80
2023-05-09T15:48:38.027Z,1.50
2023-05-09T15:51:04.972Z,1.55
2023-05-09T15:53:31.901Z,1.42
2023-05-09T15:55:58.785Z,1.23
2023-05-09T15:58:25.600Z,1.50
2023-05-09T16:00:52.622Z,1.30
2023-05-09T16:03:19.723Z,1.42
2023-05-09T16:05:46.669Z,0.93
2023-05-09T16:08:13.511Z,0.80
2023-05-09T16:10:40.892Z,0.95
2023-05-09T16:13:07.917Z,1.20
2023-05-09T16:15:35.255Z,0.73
2023-05-09T16:18:02.159Z,0.77
2023-05-09T16:20:29.001Z,0.77
2023-05-09T16:22:55.831Z,0.90
2023-05-09T16:25:22.823Z,1.00
2023-05-09T16:27:49.679Z,0.93
2023-05-09T16:30:16.859Z,0.77
2023-05-09T16:32:44.637Z,0.75
2023-05-09T16:35:11.542Z,1.00
2023-05-09T16:37:38.623Z,0.90
2023-05-09T16:40:05.741Z,0.70
2023-05-09T16:42:32.690Z,1.10
2023-05-09T16:44:59.517Z,0.80
2023-05-09T16:47:26.398Z,0.68
2023-05-09T16:49:53.273Z,1.38
2023-05-09T16:52:20.377Z,0.73
2023-05-09T16:54:47.234Z,0.70
2023-05-09T16:57:14.180Z,0.60
2023-05-09T16:59:41.048Z,0.80
2023-05-09T17:02:08.135Z,0.70
2023-05-09T17:04:37.402Z,0.80
2023-05-09T17:07:04.677Z,1.02
2023-05-09T17:09:32.093Z,1.13
2023-05-09T17:11:59.096Z,1.20
2023-05-09T17:14:26.938Z,1.10
2023-05-09T17:16:54.286Z,1.05
2023-05-09T17:19:23.455Z,1.20
2023-05-09T17:21:50.786Z,1.17
2023-05-09T17:24:17.962Z,1.10
2023-05-09T17:26:44.755Z,0.70
2023-05-09T17:29:11.558Z,0.65
2023-05-09T17:31:38.432Z,0.60
2023-05-09T17:34:05.751Z,0.40
2023-05-09T17:36:33.795Z,0.68
2023-05-09T17:39:00.929Z,0.80
2023-05-09T17:41:27.902Z,0.80
2023-05-09T17:43:57.366Z,0.65
2023-05-09T17:46:24.845Z,0.63
2023-05-09T17:48:51.922Z,0.75
2023-05-09T17:51:18.869Z,0.63
2023-05-09T17:53:46.858Z,0.60
2023-05-09T17:56:13.773Z,0.65
2023-05-09T17:58:40.588Z,0.60
2023-05-09T18:01:07.750Z,0.80
2023-05-09T18:03:34.768Z,0.63
2023-05-09T18:06:01.934Z,0.70
2023-05-09T18:08:29.944Z,0.70
2023-05-09T18:10:57.065Z,0.82
2023-05-09T18:13:24.002Z,0.90
2023-05-09T18:15:51.045Z,0.63
2023-05-09T18:18:18.038Z,0.90
2023-05-09T18:20:47.159Z,1.20
2023-05-09T18:23:15.077Z,1.00
2023-05-09T18:25:42.043Z,1.00
2023-05-09T18:28:09.441Z,0.90
2023-05-09T18:30:36.574Z,1.23
2023-05-09T18:33:03.799Z,0.90
2023-05-09T18:35:31.639Z,1.15
2023-05-09T18:37:58.503Z,0.90
2023-05-09T18:40:25.305Z,0.90
2023-05-09T18:42:52.088Z,1.10
2023-05-09T18:45:18.954Z,0.90
2023-05-09T18:47:45.782Z,0.90
2023-05-09T18:50:13.730Z,0.88
2023-05-09T18:52:40.879Z,0.90
2023-05-09T18:55:07.960Z,1.15
2023-05-09T18:57:34.828Z,1.10
2023-05-09T19:00:02.144Z,1.10
2023-05-09T19:02:30.253Z,0.95
2023-05-09T19:04:57.264Z,1.10
2023-05-09T19:07:24.250Z,0.90
2023-05-09T19:09:51.483Z,1.00
2023-05-09T19:12:18.764Z,1.30
2023-05-09T19:14:45.579Z,1.40
2023-05-09T19:17:12.436Z,1.10
2023-05-09T19:19:39.474Z,1.20
2023-05-09T19:22:06.813Z,1.48
2023-05-09T19:24:33.624Z,1.10
2023-05-09T19:27:00.509Z,1.20
2023-05-09T19:29:27.353Z,1.10
2023-05-09T19:31:54.582Z,0.77
2023-05-09T19:34:21.741Z,1.20
2023-05-09T19:36:48.681Z,0.82
2023-05-09T19:39:15.558Z,1.30
2023-05-09T19:41:42.406Z,0.90
2023-05-09T19:44:09.361Z,1.15
2023-05-09T19:46:38.468Z,1.13
2023-05-09T19:49:06.250Z,1.00
2023-05-09T19:51:33.339Z,1.80
2023-05-09T19:54:00.141Z,1.10
2023-05-09T19:56:27.359Z,1.60
2023-05-09T19:58:54.890Z,1.30
2023-05-09T20:01:21.831Z,1.60
2023-05-09T20:03:50.687Z,1.30
2023-05-09T20:06:20.828Z,1.63
2023-05-09T20:08:47.711Z,1.10
2023-05-09T20:11:14.820Z,1.55
2023-05-09T20:13:42.164Z,1.50
2023-05-09T20:16:09.031Z,1.48
2023-05-09T20:18:35.804Z,1.10
2023-05-09T20:21:03.299Z,1.30
2023-05-09T20:23:30.089Z,1.42
2023-05-09T20:25:56.915Z,1.40
2023-05-09T20:28:24.184Z,1.30
2023-05-09T20:30:51.035Z,1.38
2023-05-09T20:33:17.847Z,1.13
2023-05-09T20:35:44.898Z,1.27
2023-05-09T20:38:11.740Z,1.40
2023-05-09T20:40:38.703Z,1.38
2023-05-09T20:43:05.600Z,1.40
2023-05-09T20:45:32.479Z,1.63
2023-05-09T20:47:59.507Z,1.50
2023-05-09T20:50:26.411Z,1.75
2023-05-09T20:52:53.325Z,1.50
2023-05-09T20:55:20.238Z,1.70
2023-05-09T20:57:47.101Z,1.58
2023-05-09T21:00:14.024Z,1.75
2023-05-09T21:02:40.923Z,1.70
2023-05-09T21:05:07.983Z,1.73
2023-05-09T21:07:34.739Z,1.38
2023-05-09T21:10:01.564Z,1.77
2023-05-09T21:12:28.437Z,1.98
2023-05-09T21:14:55.224Z,1.60
2023-05-09T21:17:22.032Z,1.60
2023-05-09T21:19:51.618Z,1.92
2023-05-09T21:22:18.452Z,1.83
2023-05-09T21:24:45.396Z,2.10
2023-05-09T21:27:12.264Z,1.77
2023-05-09T21:29:39.128Z,1.55
2023-05-09T21:32:05.990Z,2.10
2023-05-09T21:34:33.006Z,2.08
2023-05-09T21:36:59.762Z,1.63
2023-05-09T21:39:26.517Z,1.75
2023-05-09T21:41:53.305Z,1.70
2023-05-09T21:44:20.033Z,2.10
2023-05-09T21:46:46.951Z,2.33
2023-05-09T21:49:16.686Z,1.50
2023-05-09T21:51:43.646Z,1.60
2023-05-09T21:54:11.117Z,2.03
2023-05-09T21:56:38.091Z,1.50
2023-05-09T21:59:04.869Z,1.50
2023-05-09T22:01:31.704Z,1.35
2023-05-09T22:03:58.919Z,1.77
2023-05-09T22:06:25.829Z,1.65
2023-05-09T22:08:52.863Z,1.60
2023-05-09T22:11:20.174Z,1.50
2023-05-09T22:13:47.059Z,1.80
2023-05-09T22:16:13.861Z,1.70
2023-05-09T22:18:40.640Z,1.50
2023-05-09T22:21:07.462Z,1.70
2023-05-09T22:23:34.312Z,1.40
2023-05-09T22:26:01.236Z,1.60
2023-05-09T22:28:27.998Z,1.55
2023-05-09T22:30:54.834Z,1.50
2023-05-09T22:33:21.619Z,1.83
2023-05-09T22:35:48.351Z,1.63
2023-05-09T22:38:15.175Z,1.80
2023-05-09T22:40:41.990Z,1.60
2023-05-09T22:43:10.533Z,1.70
2023-05-09T22:45:37.739Z,1.55
2023-05-09T22:48:05.030Z,1.92
2023-05-09T22:50:31.934Z,1.80
2023-05-09T22:52:58.778Z,1.50
2023-05-09T22:55:25.651Z,1.80
2023-05-09T22:57:52.427Z,1.70
2023-05-09T23:00:19.251Z,1.75
2023-05-09T23:02:46.104Z,1.70
2023-05-09T23:05:13.453Z,1.67
2023-05-09T23:07:40.259Z,1.77
2023-05-09T23:10:07.467Z,1.88
2023-05-09T23:12:34.360Z,1.65
2023-05-09T23:15:01.243Z,1.80
2023-05-09T23:17:28.123Z,1.58
2023-05-09T23:19:55.057Z,1.83
2023-05-09T23:22:21.867Z,1.70
2023-05-09T23:24:48.682Z,1.80
2023-05-09T23:27:15.486Z,1.50
2023-05-09T23:29:42.378Z,1.52
2023-05-09T23:32:09.301Z,1.73
2023-05-09T23:34:36.738Z,1.70
2023-05-09T23:37:04.090Z,1.40
2023-05-09T23:39:31.270Z,1.80
2023-05-09T23:41:58.279Z,1.85
2023-05-09T23:44:25.662Z,1.85
2023-05-09T23:46:52.855Z,1.90
2023-05-09T23:49:19.709Z,1.75
2023-05-09T23:51:46.567Z,1.88
2023-05-09T23:54:13.380Z,1.42
2023-05-09T23:56:40.795Z,1.52
2023-05-09T23:59:07.581Z,1.70
